Time;durP1;ratioP1;P1;durP2;ratioP2;P2;SDS_P1;SDS_P2;PMS_P1;PMS_P2;Temp;Humidity;BMP_temperature;BMP_pressure;BME280_temperature;BME280_humidity;BME280_pressure;Samples;Min_cycle;Max_cycle;Signal;HPM_P1;HPM_P2
2023/06/07 00:02:12;;;;;;;0.00;0.00;;;;;;;16.14;66.72;98673.63;5034370;28;20766;-63
2023/06/07 00:05:05;;;;;;;0.00;0.00;;;;;;;16.08;66.78;98677.81;5035558;28;20295;-63
2023/06/07 00:07:35;;;;;;;0.00;0.00;;;;;;;16.02;66.89;98676.72;5038534;28;20244;-63
2023/06/07 00:10:02;;;;;;;0.00;0.00;;;;;;;15.99;66.72;98668.41;5033029;28;20230;-63
2023/06/07 00:12:28;;;;;;;0.00;0.00;;;;;;;15.90;67.16;98673.75;5037184;28;20239;-63
2023/06/07 00:14:55;;;;;;;0.00;0.00;;;;;;;15.89;67.37;98671.34;5032486;28;20617;-63
2023/06/07 00:17:22;;;;;;;0.00;0.00;;;;;;;15.79;67.92;98667.13;5038915;28;20230;-63
2023/06/07 00:19:50;;;;;;;0.00;0.00;;;;;;;15.76;67.91;98666.66;5035070;28;20236;-63
2023/06/07 00:22:17;;;;;;;0.00;0.00;;;;;;;15.68;67.87;98669.41;5035617;28;20295;-63
2023/06/07 00:24:46;;;;;;;0.00;0.00;;;;;;;15.62;68.28;98665.69;5031762;28;20734;-63
2023/06/07 00:27:13;;;;;;;0.00;0.00;;;;;;;15.61;68.38;98671.97;5035133;28;20242;-63
2023/06/07 00:29:45;;;;;;;0.00;0.00;;;;;;;15.61;68.22;98664.88;5035883;28;20217;-63
2023/06/07 00:32:12;;;;;;;0.00;0.00;;;;;;;15.59;68.87;98666.06;5041301;28;20238;-63
2023/06/07 00:35:07;;;;;;;0.00;0.00;;;;;;;15.55;68.82;98670.06;5025126;28;20236;-63
2023/06/07 00:37:34;;;;;;;0.00;0.00;;;;;;;15.52;68.67;98670.41;5042529;28;20216;-63
2023/06/07 00:40:03;;;;;;;0.00;0.00;;;;;;;15.47;69.28;98668.31;5034096;28;20236;-63
2023/06/07 00:42:30;;;;;;;0.00;0.00;;;;;;;15.40;70.27;98670.88;5042893;28;20563;-63
2023/06/07 00:44:57;;;;;;;0.00;0.00;;;;;;;15.35;70.95;98671.41;5023582;28;20264;-63
2023/06/07 00:47:24;;;;;;;0.00;0.00;;;;;;;15.24;70.93;98673.66;5017567;28;20241;-63
2023/06/07 00:49:51;;;;;;;0.00;0.00;;;;;;;15.13;71.75;98665.22;5011439;28;20316;-63
2023/06/07 00:52:18;;;;;;;0.00;0.00;;;;;;;15.03;73.17;98662.84;5017732;28;20242;-63
2023/06/07 00:54:46;;;;;;;0.00;0.00;;;;;;;14.95;73.19;98664.72;5035326;28;20225;-63
2023/06/07 00:57:16;;;;;;;0.00;0.00;;;;;;;14.86;73.67;98664.78;5048037;28;20703;-63
2023/06/07 00:59:46;;;;;;;0.00;0.00;;;;;;;14.82;73.23;98674.06;5027457;28;20722;-63
2023/06/07 01:02:14;;;;;;;0.00;0.00;;;;;;;14.74;73.61;98669.66;5019777;28;20608;-63
2023/06/07 01:04:48;;;;;;;0.00;0.00;;;;;;;14.65;73.76;98675.16;5029632;28;20782;-63
2023/06/07 01:07:17;;;;;;;0.00;0.00;;;;;;;14.63;75.58;98662.16;5016997;28;20302;-63
2023/06/07 01:09:45;;;;;;;0.00;0.00;;;;;;;14.57;75.71;98668.97;5028003;28;20223;-63
2023/06/07 01:12:16;;;;;;;0.00;0.00;;;;;;;14.53;75.71;98662.41;5032526;28;20702;-63
2023/06/07 01:14:47;;;;;;;0.00;0.00;;;;;;;14.46;76.36;98664.91;5026702;28;20219;-63
2023/06/07 01:17:14;;;;;;;0.00;0.00;;;;;;;14.38;75.57;98664.97;5034910;28;20289;-63
2023/06/07 01:19:51;;;;;;;0.00;0.00;;;;;;;14.35;76.23;98667.13;5021841;28;20610;-63
2023/06/07 01:22:20;;;;;;;0.00;0.00;;;;;;;14.26;76.42;98661.13;5013760;28;20244;-63
2023/06/07 01:24:48;;;;;;;0.00;0.00;;;;;;;14.22;77.50;98665.09;5011588;28;20226;-63
2023/06/07 01:27:16;;;;;;;0.00;0.00;;;;;;;14.11;77.68;98672.38;5034529;28;20241;-63
2023/06/07 01:29:46;;;;;;;0.00;0.00;;;;;;;14.06;78.92;98663.38;5033711;28;20220;-63
2023/06/07 01:32:13;;;;;;;0.00;0.00;;;;;;;13.99;78.57;98658.81;5035233;28;20240;-63
2023/06/07 01:34:47;;;;;;;0.00;0.00;;;;;;;13.95;78.04;98660.13;5032708;28;20223;-63
2023/06/07 01:37:14;;;;;;;0.00;0.00;;;;;;;13.90;79.16;98661.66;5034561;28;20682;-63
2023/06/07 01:39:48;;;;;;;0.00;0.00;;;;;;;13.80;79.10;98661.84;5031831;28;20644;-63
2023/06/07 01:42:17;;;;;;;0.00;0.00;;;;;;;13.78;79.78;98658.59;5032495;28;20238;-63
2023/06/07 01:44:49;;;;;;;0.00;0.00;;;;;;;13.67;80.29;98657.97;5039246;28;20745;-63
2023/06/07 01:47:16;;;;;;;0.00;0.00;;;;;;;13.61;80.05;98656.03;5040216;28;20236;-63
2023/06/07 01:49:45;;;;;;;0.00;0.00;;;;;;;13.55;80.17;98659.34;5037618;28;20224;-63
2023/06/07 01:52:12;;;;;;;0.00;0.00;;;;;;;13.52;80.54;98652.59;5047498;28;20289;-63
2023/06/07 01:54:48;;;;;;;0.00;0.00;;;;;;;13.48;80.85;98645.25;5011392;28;20314;-63
2023/06/07 01:57:21;;;;;;;0.00;0.00;;;;;;;13.42;82.16;98649.38;5030469;28;20232;-63
2023/06/07 02:00:00;;;;;;;0.00;0.00;;;;;;;13.33;81.24;98647.72;5033324;28;20316;-63
2023/06/07 02:02:33;;;;;;;0.00;0.00;;;;;;;13.27;82.41;98644.78;5035992;28;20227;-63
2023/06/07 02:05:03;;;;;;;0.00;0.00;;;;;;;13.21;82.40;98649.88;5037382;28;20225;-63
2023/06/07 02:07:36;;;;;;;0.00;0.00;;;;;;;13.17;83.02;98641.56;5041602;28;20230;-63
2023/06/07 02:10:06;;;;;;;0.00;0.00;;;;;;;13.18;82.44;98653.69;5038786;28;20241;-63
2023/06/07 02:12:35;;;;;;;0.00;0.00;;;;;;;13.17;83.17;98645.97;5036788;28;20227;-63
2023/06/07 02:15:01;;;;;;;0.00;0.00;;;;;;;13.15;82.25;98643.53;5037463;28;20237;-63
2023/06/07 02:17:28;;;;;;;0.00;0.00;;;;;;;13.14;82.53;98640.06;5044573;28;20229;-63
2023/06/07 02:19:55;;;;;;;0.00;0.00;;;;;;;13.08;82.45;98651.22;5047832;28;20220;-63
2023/06/07 02:22:22;;;;;;;0.00;0.00;;;;;;;13.05;82.01;98645.50;5017030;28;20258;-63
2023/06/07 02:24:48;;;;;;;0.00;0.00;;;;;;;12.98;83.22;98648.78;5033583;28;20278;-63
2023/06/07 02:27:16;;;;;;;0.00;0.00;;;;;;;12.94;82.63;98650.09;5038624;28;20236;-63
2023/06/07 02:29:45;;;;;;;0.00;0.00;;;;;;;12.94;83.27;98649.28;5040729;28;20212;-63
2023/06/07 02:32:12;;;;;;;0.00;0.00;;;;;;;12.92;83.39;98653.84;5049346;28;20239;-63
2023/06/07 02:34:47;;;;;;;0.00;0.00;;;;;;;12.95;83.87;98656.97;5040347;28;20909;-63
2023/06/07 02:37:15;;;;;;;0.00;0.00;;;;;;;13.03;84.98;98656.13;5035788;28;20225;-63
2023/06/07 02:39:45;;;;;;;0.00;0.00;;;;;;;13.04;85.41;98656.97;5026205;28;20250;-63
2023/06/07 02:42:12;;;;;;;0.00;0.00;;;;;;;12.97;85.21;98655.00;5017334;28;20239;-63
2023/06/07 02:44:44;;;;;;;0.00;0.00;;;;;;;12.89;85.10;98654.19;5030998;28;20224;-63
2023/06/07 02:47:10;;;;;;;0.00;0.00;;;;;;;12.88;85.77;98653.38;5044194;28;20232;-63
2023/06/07 02:49:37;;;;;;;0.00;0.00;;;;;;;12.89;85.36;98659.44;5031882;28;20589;-63
2023/06/07 02:52:05;;;;;;;0.00;0.00;;;;;;;12.83;85.27;98658.28;5014790;28;20245;-63
2023/06/07 02:54:34;;;;;;;0.00;0.00;;;;;;;12.80;85.51;98666.47;5023242;28;20730;-63
2023/06/07 02:57:02;;;;;;;0.00;0.00;;;;;;;12.84;86.53;98660.72;5042007;28;20238;-63
2023/06/07 02:59:29;;;;;;;0.00;0.00;;;;;;;12.85;87.30;98658.94;5036980;28;20234;-63
2023/06/07 03:01:57;;;;;;;0.00;0.00;;;;;;;12.88;86.90;98657.78;5048876;28;20254;-63
2023/06/07 03:04:26;;;;;;;0.00;0.00;;;;;;;12.90;86.74;98655.81;5043430;28;20655;-63
2023/06/07 03:06:56;;;;;;;0.00;0.00;;;;;;;12.87;85.64;98658.75;5034351;28;20227;-63
2023/06/07 03:09:29;;;;;;;0.00;0.00;;;;;;;12.90;86.51;98663.69;5038748;28;20583;-63
2023/06/07 03:11:56;;;;;;;0.00;0.00;;;;;;;12.81;86.35;98662.88;5040472;28;20241;-63
2023/06/07 03:14:25;;;;;;;0.00;0.00;;;;;;;12.79;86.23;98662.22;5053054;28;20230;-63
2023/06/07 03:16:53;;;;;;;0.00;0.00;;;;;;;12.76;86.46;98665.16;5034002;28;20235;-63
2023/06/07 03:19:21;;;;;;;0.00;0.00;;;;;;;12.76;87.72;98665.97;5053750;28;20318;-63
2023/06/07 03:21:52;;;;;;;0.00;0.00;;;;;;;12.75;87.91;98664.34;5040351;28;20282;-63
2023/06/07 03:24:19;;;;;;;0.00;0.00;;;;;;;12.73;86.53;98661.06;5020286;28;20282;-63
2023/06/07 03:26:46;;;;;;;0.00;0.00;;;;;;;12.76;86.97;98655.50;5015434;28;20282;-63
2023/06/07 03:29:14;;;;;;;0.00;0.00;;;;;;;12.81;87.22;98658.44;5015596;28;20317;-63
2023/06/07 03:31:42;;;;;;;0.00;0.00;;;;;;;12.83;88.07;98658.28;5257106;22;20231;-63
2023/06/07 03:34:12;;;;;;;0.00;0.00;;;;;;;12.91;85.76;98663.53;5023816;28;20242;-63
2023/06/07 03:36:42;;;;;;;0.00;0.00;;;;;;;12.91;86.14;98663.53;5035779;28;20223;-63
2023/06/07 03:39:13;;;;;;;0.00;0.00;;;;;;;12.86;86.60;98665.81;5024997;28;20716;-63
2023/06/07 03:41:40;;;;;;;0.00;0.00;;;;;;;12.90;86.31;98667.13;5023705;28;20287;-63
2023/06/07 03:44:08;;;;;;;0.00;0.00;;;;;;;12.87;86.71;98667.47;5024771;28;20314;-63
2023/06/07 03:46:36;;;;;;;0.00;0.00;;;;;;;12.84;87.03;98671.22;5024897;28;20224;-63
2023/06/07 03:49:02;;;;;;;0.00;0.00;;;;;;;12.81;86.12;98668.91;5022059;28;20234;-63
2023/06/07 03:51:32;;;;;;;0.00;0.00;;;;;;;12.81;86.82;98673.34;5024006;28;20223;-63
2023/06/07 03:54:01;;;;;;;0.00;0.00;;;;;;;12.83;86.39;98668.78;5018787;28;20858;-63
2023/06/07 03:56:29;;;;;;;0.00;0.00;;;;;;;12.88;87.41;98669.09;5023917;28;20266;-63
2023/06/07 03:58:57;;;;;;;0.00;0.00;;;;;;;12.89;87.54;98668.13;5022015;28;20996;-63
2023/06/07 04:01:25;;;;;;;0.00;0.00;;;;;;;12.95;87.26;98669.25;5016104;28;20243;-63
2023/06/07 04:03:54;;;;;;;0.00;0.00;;;;;;;12.95;87.08;98669.25;5020593;28;20290;-63
2023/06/07 04:06:24;;;;;;;0.00;0.00;;;;;;;12.99;87.35;98660.06;5020011;28;20640;-63
2023/06/07 04:08:52;;;;;;;0.00;0.00;;;;;;;13.04;87.34;98660.41;5021227;28;20222;-63
2023/06/07 04:11:20;;;;;;;0.00;0.00;;;;;;;13.14;86.64;98666.28;5040954;28;20310;-63
2023/06/07 04:13:47;;;;;;;0.00;0.00;;;;;;;13.23;86.47;98667.09;5020730;28;20240;-63
2023/06/07 04:16:14;;;;;;;0.00;0.00;;;;;;;13.25;86.37;98672.16;5024464;28;20252;-63
2023/06/07 04:18:44;;;;;;;0.00;0.00;;;;;;;13.32;86.46;98665.25;5021338;28;20217;-63
2023/06/07 04:21:10;;;;;;;0.00;0.00;;;;;;;13.39;87.02;98668.03;5024186;28;20320;-63
2023/06/07 04:23:41;;;;;;;0.00;0.00;;;;;;;13.44;87.17;98665.75;5020985;28;20211;-63
2023/06/07 04:26:08;;;;;;;0.00;0.00;;;;;;;13.46;86.73;98663.78;5023622;28;20232;-63
2023/06/07 04:28:37;;;;;;;0.00;0.00;;;;;;;13.49;86.94;98675.75;5029243;28;20222;-63
2023/06/07 04:31:08;;;;;;;0.00;0.00;;;;;;;13.53;87.16;98669.19;5023567;28;20314;-63
2023/06/07 04:33:37;;;;;;;0.00;0.00;;;;;;;13.54;89.19;98674.25;5023171;28;20225;-63
2023/06/07 04:36:04;;;;;;;0.00;0.00;;;;;;;13.61;87.45;98673.56;5019182;28;20263;-63
2023/06/07 04:38:30;;;;;;;0.00;0.00;;;;;;;13.61;88.16;98663.91;5038842;28;20224;-63
2023/06/07 04:41:06;;;;;;;0.00;0.00;;;;;;;13.65;87.52;98670.44;5018938;28;20237;-63
2023/06/07 04:43:38;;;;;;;0.00;0.00;;;;;;;13.72;88.49;98675.81;5023072;28;20224;-63
2023/06/07 04:46:09;;;;;;;0.00;0.00;;;;;;;13.72;89.60;98674.03;5021354;28;20319;-63
2023/06/07 04:48:41;;;;;;;0.00;0.00;;;;;;;13.73;89.48;98673.03;5023710;28;20232;-63
2023/06/07 04:51:08;;;;;;;0.00;0.00;;;;;;;13.77;88.77;98670.09;5020965;28;20321;-63
2023/06/07 04:53:42;;;;;;;0.00;0.00;;;;;;;13.81;88.38;98677.44;5019895;28;20225;-63
2023/06/07 04:56:11;;;;;;;0.00;0.00;;;;;;;13.82;88.91;98678.22;5039973;28;20232;-63
2023/06/07 04:58:41;;;;;;;0.00;0.00;;;;;;;13.87;88.98;98681.16;5024884;28;20249;-63
2023/06/07 05:01:10;;;;;;;0.00;0.00;;;;;;;13.93;89.46;98687.56;5022237;28;20285;-63
2023/06/07 05:03:40;;;;;;;0.00;0.00;;;;;;;13.98;89.50;98680.78;5022806;28;20298;-63
2023/06/07 05:06:06;;;;;;;0.00;0.00;;;;;;;13.96;89.57;98676.72;5019355;28;20736;-63
2023/06/07 05:08:33;;;;;;;0.00;0.00;;;;;;;14.00;88.97;98675.38;5022115;28;20242;-63
2023/06/07 05:11:00;;;;;;;0.00;0.00;;;;;;;14.06;89.55;98668.63;5020178;28;20240;-63
2023/06/07 05:13:28;;;;;;;0.00;0.00;;;;;;;14.02;91.00;98671.56;5013114;28;20274;-63
2023/06/07 05:16:01;;;;;;;0.00;0.00;;;;;;;13.96;93.19;98664.41;5017539;28;20235;-63
2023/06/07 05:18:28;;;;;;;0.00;0.00;;;;;;;14.09;91.59;98665.66;5038901;28;20244;-63
2023/06/07 05:20:57;;;;;;;0.00;0.00;;;;;;;14.15;91.49;98670.19;5020515;28;20274;-63
2023/06/07 05:23:25;;;;;;;0.00;0.00;;;;;;;14.24;90.78;98663.13;5023065;28;20230;-63
2023/06/07 05:25:54;;;;;;;0.00;0.00;;;;;;;14.25;91.11;98665.56;5018434;28;20255;-63
2023/06/07 05:28:22;;;;;;;0.00;0.00;;;;;;;14.38;91.24;98666.78;5023406;28;20227;-63
2023/06/07 05:30:54;;;;;;;0.00;0.00;;;;;;;14.49;90.19;98665.56;5019817;28;20690;-63
2023/06/07 05:33:23;;;;;;;0.00;0.00;;;;;;;14.61;89.92;98672.03;5021831;28;20703;-63
2023/06/07 05:35:50;;;;;;;0.00;0.00;;;;;;;14.73;89.66;98678.53;5016832;28;20238;-63
2023/06/07 05:38:18;;;;;;;0.00;0.00;;;;;;;14.87;88.03;98682.19;5023087;28;20235;-63
2023/06/07 05:40:44;;;;;;;0.00;0.00;;;;;;;15.04;82.32;98688.16;5020075;28;20316;-63
2023/06/07 05:43:11;;;;;;;0.00;0.00;;;;;;;15.21;82.04;98688.00;5022417;28;20225;-63
2023/06/07 05:45:40;;;;;;;0.00;0.00;;;;;;;15.40;80.62;98684.00;5024069;28;20228;-63
2023/06/07 05:48:08;;;;;;;0.00;0.00;;;;;;;15.57;80.68;98689.91;5012334;28;20228;-63
2023/06/07 05:50:36;;;;;;;0.00;0.00;;;;;;;15.72;79.98;98696.97;5026831;28;20706;-63
2023/06/07 05:53:03;;;;;;;0.00;0.00;;;;;;;15.76;81.01;98687.72;5023269;28;20643;-63
2023/06/07 05:55:29;;;;;;;0.00;0.00;;;;;;;15.91;80.19;98685.09;5027719;28;20228;-63
2023/06/07 05:57:57;;;;;;;0.00;0.00;;;;;;;16.09;79.57;98689.97;5023181;28;20283;-63
2023/06/07 06:00:24;;;;;;;0.00;0.00;;;;;;;16.19;77.33;98687.88;5028120;28;20359;-63
2023/06/07 06:02:52;;;;;;;0.00;0.00;;;;;;;16.26;75.00;98693.19;5024764;28;20224;-63
2023/06/07 06:05:20;;;;;;;0.00;0.00;;;;;;;16.39;74.71;98692.53;5027804;28;20283;-63
2023/06/07 06:07:48;;;;;;;0.00;0.00;;;;;;;16.57;73.59;98689.47;5022339;28;20217;-63
2023/06/07 06:10:15;;;;;;;0.00;0.00;;;;;;;16.75;73.42;98694.28;5027785;28;20240;-63
2023/06/07 06:12:42;;;;;;;0.00;0.00;;;;;;;16.88;73.44;98693.59;5024643;28;20305;-63
2023/06/07 06:15:09;;;;;;;0.00;0.00;;;;;;;17.00;74.24;98693.09;5027095;28;20237;-63
2023/06/07 06:17:35;;;;;;;0.00;0.00;;;;;;;17.20;74.32;98691.41;5026912;28;20284;-63
2023/06/07 06:20:02;;;;;;;0.00;0.00;;;;;;;17.26;73.08;98690.66;5024756;28;20697;-63
2023/06/07 06:22:29;;;;;;;0.00;0.00;;;;;;;17.44;73.24;98694.63;5028717;28;20226;-63
2023/06/07 06:24:57;;;;;;;0.00;0.00;;;;;;;17.67;70.79;98704.91;5025381;28;20219;-63
2023/06/07 06:27:24;;;;;;;0.00;0.00;;;;;;;17.75;70.16;98701.28;5030319;28;20231;-63
2023/06/07 06:29:51;;;;;;;0.00;0.00;;;;;;;17.78;69.17;98702.72;5024991;28;20227;-63
2023/06/07 06:32:17;;;;;;;0.00;0.00;;;;;;;17.69;69.18;98710.00;5027695;28;20316;-63
2023/06/07 06:34:45;;;;;;;0.00;0.00;;;;;;;17.71;67.95;98710.63;5023495;28;20233;-63
2023/06/07 06:37:12;;;;;;;0.00;0.00;;;;;;;17.76;67.65;98712.66;5027449;28;20242;-63
2023/06/07 06:40:07;;;;;;;0.00;0.00;;;;;;;17.73;67.58;98713.03;5023297;28;20712;-63
2023/06/07 06:42:34;;;;;;;0.00;0.00;;;;;;;17.94;67.80;98712.94;5027272;28;20239;-63
2023/06/07 06:45:36;;;;;;;0.00;0.00;;;;;;;17.93;67.45;98721.88;5012929;28;20337;-63
2023/06/07 06:48:02;;;;;;;0.00;0.00;;;;;;;18.14;68.33;98720.19;5024145;28;20235;-63
2023/06/07 06:50:29;;;;;;;0.00;0.00;;;;;;;18.23;66.74;98716.34;5027144;28;20749;-63
2023/06/07 06:52:56;;;;;;;0.00;0.00;;;;;;;18.23;65.92;98718.16;5022759;28;20399;-63
2023/06/07 06:55:24;;;;;;;10.03;5.80;;;;;;;18.06;67.08;98717.72;5026085;28;20293;-63
2023/06/07 06:57:50;;;;;;;7.37;5.50;;;;;;;18.17;67.50;98713.66;5023819;28;20215;-63
2023/06/07 07:00:18;;;;;;;8.27;5.20;;;;;;;18.26;68.08;98718.59;5027274;28;20242;-63
2023/06/07 07:02:44;;;;;;;7.37;5.80;;;;;;;18.54;67.29;98728.22;5023506;28;20235;-63
2023/06/07 07:05:11;;;;;;;6.20;5.33;;;;;;;18.67;66.24;98716.84;5026505;28;20231;-63
2023/06/07 07:07:38;;;;;;;8.40;4.93;;;;;;;18.78;66.73;98710.13;5026906;28;20289;-63
2023/06/07 07:10:05;;;;;;;8.50;5.47;;;;;;;19.03;65.39;98715.69;5022611;28;20238;-63
2023/06/07 07:12:33;;;;;;;8.73;5.10;;;;;;;18.99;64.94;98714.47;5026172;28;20220;-63
2023/06/07 07:15:00;;;;;;;0.00;0.00;;;;;;;19.31;64.79;98719.94;5023916;28;20228;-63
2023/06/07 07:17:26;;;;;;;5.43;4.60;;;;;;;19.43;64.48;98721.94;5026966;28;20219;-63
2023/06/07 07:19:53;;;;;;;6.33;4.60;;;;;;;19.38;64.69;98722.59;5023821;28;20220;-63
2023/06/07 07:22:20;;;;;;;6.73;4.80;;;;;;;19.69;64.35;98714.97;5026213;28;20243;-63
2023/06/07 07:24:46;;;;;;;6.30;4.80;;;;;;;19.83;63.63;98726.34;5023384;28;20322;-63
2023/06/07 07:27:14;;;;;;;0.00;0.00;;;;;;;19.81;62.74;98718.63;5026616;28;20234;-63
2023/06/07 07:29:47;;;;;;;7.10;5.07;;;;;;;19.84;62.80;98726.13;5023106;28;20235;-63
2023/06/07 07:32:13;;;;;;;10.50;4.77;;;;;;;19.93;63.90;98720.66;5025981;28;20325;-63
2023/06/07 07:34:46;;;;;;;5.90;4.57;;;;;;;20.19;63.75;98725.00;5023355;28;20308;-63
2023/06/07 07:37:12;;;;;;;5.57;4.50;;;;;;;20.43;62.72;98727.94;5026204;28;20313;-63
2023/06/07 07:39:45;;;;;;;5.30;4.20;;;;;;;20.57;61.36;98720.72;5022471;28;20304;-63
2023/06/07 07:42:12;;;;;;;7.60;4.57;;;;;;;20.52;61.96;98721.38;5026465;28;20248;-63
2023/06/07 07:45:06;;;;;;;6.63;4.40;;;;;;;20.75;62.60;98714.66;5022891;28;20646;-63
2023/06/07 07:47:33;;;;;;;5.13;3.87;;;;;;;20.87;61.29;98712.19;5026433;28;20425;-63
2023/06/07 07:50:00;;;;;;;4.27;3.87;;;;;;;21.03;60.42;98716.13;5023340;28;20243;-63
2023/06/07 07:52:27;;;;;;;0.00;0.00;;;;;;;21.11;61.16;98710.56;5026269;28;20671;-63
2023/06/07 07:54:54;;;;;;;0.00;0.00;;;;;;;21.21;60.00;98716.19;5022466;28;20760;-63
2023/06/07 07:57:21;;;;;;;0.00;0.00;;;;;;;21.15;57.80;98706.44;5026034;28;20603;-63
2023/06/07 07:59:47;;;;;;;0.00;0.00;;;;;;;21.44;55.79;98717.41;5023411;28;20226;-63
2023/06/07 08:02:15;;;;;;;0.00;0.00;;;;;;;21.41;52.63;98712.53;5026090;28;20228;-63
2023/06/07 08:04:46;;;;;;;0.00;0.00;;;;;;;21.36;52.55;98715.03;5022996;28;20213;-63
2023/06/07 08:07:15;;;;;;;0.00;0.00;;;;;;;21.56;51.98;98712.16;5025597;28;20239;-63
2023/06/07 08:09:45;;;;;;;0.00;0.00;;;;;;;21.72;49.28;98709.97;5021556;28;20214;-63
2023/06/07 08:12:12;;;;;;;0.00;0.00;;;;;;;21.83;48.48;98711.91;5025566;28;20244;-63
2023/06/07 08:15:04;;;;;;;0.00;0.00;;;;;;;21.90;48.80;98712.63;5022771;28;20239;-63
2023/06/07 08:17:32;;;;;;;0.00;0.00;;;;;;;21.91;48.43;98711.59;5025862;28;20229;-63
2023/06/07 08:20:04;;;;;;;0.00;0.00;;;;;;;22.04;47.76;98705.31;5022958;28;20280;-63
2023/06/07 08:22:31;;;;;;;0.00;0.00;;;;;;;21.85;48.91;98706.34;5025340;28;20658;-63
2023/06/07 08:24:57;;;;;;;0.00;0.00;;;;;;;21.92;48.43;98705.25;5022621;28;20225;-63
2023/06/07 08:27:24;;;;;;;0.00;0.00;;;;;;;21.93;46.80;98704.22;5025517;28;20224;-63
2023/06/07 08:29:50;;;;;;;0.00;0.00;;;;;;;22.04;48.57;98709.81;5022858;28;20231;-63
2023/06/07 08:32:17;;;;;;;0.00;0.00;;;;;;;22.15;47.13;98710.91;5024327;28;20304;-63
2023/06/07 08:34:47;;;;;;;0.00;0.00;;;;;;;22.15;46.46;98703.75;5022161;28;20681;-63
2023/06/07 08:37:14;;;;;;;0.00;0.00;;;;;;;22.23;46.35;98705.28;5025295;28;20229;-63
2023/06/07 08:39:46;;;;;;;0.00;0.00;;;;;;;22.32;47.43;98711.06;5022416;28;20617;-63
2023/06/07 08:42:13;;;;;;;0.00;0.00;;;;;;;22.29;48.53;98712.34;5024808;28;20242;-63
2023/06/07 08:44:46;;;;;;;0.00;0.00;;;;;;;22.26;46.87;98707.47;5022044;28;20217;-63
2023/06/07 08:47:13;;;;;;;0.00;0.00;;;;;;;22.51;47.69;98707.34;5025411;28;20713;-63
2023/06/07 08:49:50;;;;;;;0.00;0.00;;;;;;;22.66;51.34;98714.94;5022059;28;20229;-63
2023/06/07 08:52:17;;;;;;;0.00;0.00;;;;;;;22.59;51.58;98713.38;5025308;28;20241;-63
2023/06/07 08:54:49;;;;;;;0.00;0.00;;;;;;;22.55;51.85;98700.53;5021991;28;20227;-63
2023/06/07 08:57:16;;;;;;;0.00;0.00;;;;;;;22.58;51.57;98707.28;5025033;28;20250;-63
2023/06/07 08:59:48;;;;;;;0.00;0.00;;;;;;;22.39;51.16;98709.97;5021846;28;20314;-63
2023/06/07 09:02:15;;;;;;;0.00;0.00;;;;;;;22.07;52.06;98704.84;5024544;28;20242;-63
2023/06/07 09:04:45;;;;;;;0.00;0.00;;;;;;;22.28;51.99;98713.38;5036321;28;20235;-63
2023/06/07 09:07:14;;;;;;;0.00;0.00;;;;;;;22.46;50.25;98711.75;5023372;28;20248;-63
2023/06/07 09:09:46;;;;;;;0.00;0.00;;;;;;;22.36;50.71;98720.22;5021975;28;20314;-63
2023/06/07 09:12:12;;;;;;;0.00;0.00;;;;;;;22.43;50.61;98715.63;5024575;28;20259;-63
2023/06/07 09:15:07;;;;;;;0.00;0.00;;;;;;;22.45;51.04;98708.25;5022180;28;20308;-63
2023/06/07 09:17:55;;;;;;;0.00;0.00;;;;;;;22.57;52.70;98703.00;5023992;28;20237;-63
2023/06/07 09:20:23;;;;;;;0.00;0.00;;;;;;;22.61;51.21;98714.81;5018801;28;20796;-63
2023/06/07 09:23:00;;;;;;;0.00;0.00;;;;;;;22.69;50.35;98711.00;5020997;28;20296;-63
2023/06/07 09:25:27;;;;;;;0.00;0.00;;;;;;;22.65;50.21;98708.00;5024241;28;20214;-63
2023/06/07 09:27:54;;;;;;;0.00;0.00;;;;;;;22.87;51.54;98704.75;5021906;28;20229;-63
2023/06/07 09:30:23;;;;;;;0.00;0.00;;;;;;;23.00;47.73;98717.84;5024122;28;20306;-63
2023/06/07 09:32:50;;;;;;;0.00;0.00;;;;;;;22.86;47.13;98713.78;5021558;28;20230;-63
2023/06/07 09:35:18;;;;;;;0.00;0.00;;;;;;;22.60;50.33;98715.00;5023616;28;20251;-63
2023/06/07 09:37:47;;;;;;;0.00;0.00;;;;;;;22.81;50.19;98721.66;5020568;28;20881;-63
2023/06/07 09:40:16;;;;;;;0.00;0.00;;;;;;;22.84;48.47;98718.53;5024048;28;20259;-63
2023/06/07 09:42:44;;;;;;;0.00;0.00;;;;;;;22.82;50.03;98718.78;5020906;28;20222;-63
2023/06/07 09:45:12;;;;;;;0.00;0.00;;;;;;;22.96;50.14;98713.25;5024310;28;20257;-61
2023/06/07 09:47:40;;;;;;;0.00;0.00;;;;;;;22.98;50.09;98719.16;5023283;28;20297;-62
2023/06/07 09:50:08;;;;;;;8.03;3.20;;;;;;;23.04;49.48;98718.22;5022113;28;20659;-62
2023/06/07 09:52:35;;;;;;;4.03;2.60;;;;;;;23.06;49.23;98715.31;5023582;28;20224;-62
2023/06/07 09:55:02;;;;;;;3.50;2.57;;;;;;;23.12;50.90;98712.56;5021079;28;20249;-62
2023/06/07 09:57:31;;;;;;;4.73;3.17;;;;;;;23.15;48.10;98714.75;5023932;28;20247;-62
2023/06/07 10:00:00;;;;;;;6.20;2.53;;;;;;;23.17;48.55;98711.84;5020976;28;20254;-62
2023/06/07 10:02:28;;;;;;;4.07;2.67;;;;;;;23.09;48.02;98715.69;5023841;28;21123;-62
2023/06/07 10:04:57;;;;;;;7.03;3.10;;;;;;;23.32;47.69;98715.94;5021072;28;20227;-62
2023/06/07 10:07:28;;;;;;;5.97;3.23;;;;;;;23.41;47.08;98712.69;5024176;28;20814;-62
2023/06/07 10:09:58;;;;;;;4.27;2.83;;;;;;;23.32;47.71;98716.72;5021034;28;20270;-62
2023/06/07 10:12:28;;;;;;;3.40;3.10;;;;;;;23.47;46.88;98702.13;5024329;28;20231;-62
2023/06/07 10:15:00;;;;;;;0.00;0.00;;;;;;;23.67;47.35;98715.09;5025446;28;20282;-62
2023/06/07 10:17:34;;;;;;;5.13;2.80;;;;;;;23.57;47.45;98713.00;5024094;28;20292;-62
2023/06/07 10:20:04;;;;;;;0.00;0.00;;;;;;;23.32;46.82;98710.63;5020951;28;20238;-62
2023/06/07 10:22:37;;;;;;;0.00;0.00;;;;;;;23.60;46.32;98704.56;5023634;28;20319;-62
2023/06/07 10:25:09;;;;;;;0.00;0.00;;;;;;;23.49;46.60;98700.06;5017790;28;20244;-62
2023/06/07 10:27:50;;;;;;;0.00;0.00;;;;;;;23.61;45.92;98708.84;5023579;28;20230;-62
2023/06/07 10:30:20;;;;;;;0.00;0.00;;;;;;;23.56;46.86;98706.06;5020921;28;20694;-62
2023/06/07 10:32:47;;;;;;;0.00;0.00;;;;;;;23.80;44.11;98703.34;5022437;28;20235;-62
2023/06/07 10:35:16;;;;;;;0.00;0.00;;;;;;;23.91;43.86;98696.38;5026795;28;20231;-62
2023/06/07 10:37:43;;;;;;;0.00;0.00;;;;;;;23.68;43.51;98706.84;5024519;28;20703;-62
2023/06/07 10:40:11;;;;;;;0.00;0.00;;;;;;;23.72;43.44;98700.00;5027447;28;20286;-62
2023/06/07 10:42:39;;;;;;;0.00;0.00;;;;;;;23.78;44.19;98694.78;5027516;28;20231;-62
2023/06/07 10:45:07;;;;;;;0.00;0.00;;;;;;;23.70;43.91;98693.31;5024818;28;20236;-62
2023/06/07 10:47:35;;;;;;;0.00;0.00;;;;;;;23.92;44.46;98692.66;5027675;28;20801;-62
2023/06/07 10:50:01;;;;;;;0.00;0.00;;;;;;;24.05;43.21;98695.06;5024207;28;20239;-62
2023/06/07 10:52:28;;;;;;;0.00;0.00;;;;;;;24.15;44.42;98695.28;5026945;28;20224;-62
2023/06/07 10:54:55;;;;;;;0.00;0.00;;;;;;;24.15;43.50;98686.47;5023632;28;21064;-62
2023/06/07 10:57:32;;;;;;;0.00;0.00;;;;;;;24.29;42.67;98689.66;5027266;28;20302;-62
2023/06/07 11:00:26;;;;;;;0.00;0.00;;;;;;;24.12;41.73;98692.28;5023456;28;20355;-62
2023/06/07 11:03:36;;;;;;;0.00;0.00;;;;;;;24.19;41.57;98690.28;5023949;28;20266;-62
2023/06/07 11:06:06;;;;;;;0.00;0.00;;;;;;;24.18;42.21;98681.47;5023654;28;20288;-62
2023/06/07 11:08:36;;;;;;;0.00;0.00;;;;;;;24.38;40.93;98692.75;5026826;28;20220;-62
2023/06/07 11:11:04;;;;;;;0.00;0.00;;;;;;;24.29;40.64;98690.47;5024654;28;20243;-62
2023/06/07 11:14:11;;;;;;;0.00;0.00;;;;;;;24.23;40.78;98683.44;5027200;28;20316;-62
2023/06/07 11:16:38;;;;;;;0.00;0.00;;;;;;;24.58;40.92;98682.41;5024080;28;20679;-62
2023/06/07 11:19:09;;;;;;;0.00;0.00;;;;;;;24.66;41.62;98680.38;5024455;28;20569;-62
2023/06/07 11:22:04;;;;;;;0.00;0.00;;;;;;;24.62;41.92;98675.53;5024977;28;20229;-63
2023/06/07 11:24:36;;;;;;;0.00;0.00;;;;;;;24.72;40.92;98674.09;5023679;28;20690;-62
2023/06/07 11:27:03;;;;;;;0.00;0.00;;;;;;;24.56;41.33;98668.50;5024051;28;20285;-62
2023/06/07 11:29:31;;;;;;;0.00;0.00;;;;;;;24.79;41.48;98669.44;5026662;28;20258;-62
2023/06/07 11:31:59;;;;;;;0.00;0.00;;;;;;;24.79;42.30;98661.41;5022166;28;20590;-62
2023/06/07 11:34:27;;;;;;;0.00;0.00;;;;;;;24.98;41.93;98659.28;5026592;28;20221;-62
2023/06/07 11:37:13;;;;;;;0.00;0.00;;;;;;;25.00;40.66;98673.19;5023652;28;20222;-62
2023/06/07 11:39:46;;;;;;;0.00;0.00;;;;;;;25.01;39.82;98660.69;5022232;28;20697;-62
2023/06/07 11:42:12;;;;;;;0.00;0.00;;;;;;;25.04;39.87;98665.53;5025877;28;20324;-62
2023/06/07 11:45:05;;;;;;;0.00;0.00;;;;;;;25.08;39.76;98663.16;5023747;28;20341;-62
2023/06/07 11:47:32;;;;;;;0.00;0.00;;;;;;;25.15;40.40;98664.63;5025073;28;20292;-62